sensor_id;sensor_type;location;lat;lon;timestamp;P1;durP1;ratioP1;P2;durP2;ratioP2
16892;SDS011;8563;52.242;9.098;2023-04-30T00:02:16;4.23;;;3.23;;
16892;SDS011;8563;52.242;9.098;2023-04-30T00:04:49;3.53;;;3.10;;
16892;SDS011;8563;52.242;9.098;2023-04-30T00:07:22;4.20;;;3.00;;
16892;SDS011;8563;52.242;9.098;2023-04-30T00:09:54;5.53;;;3.47;;
16892;SDS011;8563;52.242;9.098;2023-04-30T00:12:27;4.57;;;3.20;;
16892;SDS011;8563;52.242;9.098;2023-04-30T00:15:00;4.67;;;3.13;;
16892;SDS011;8563;52.242;9.098;2023-04-30T00:17:34;7.27;;;3.53;;
16892;SDS011;8563;52.242;9.098;2023-04-30T00:20:07;3.60;;;3.00;;
16892;SDS011;8563;52.242;9.098;2023-04-30T00:22:40;7.80;;;3.50;;
16892;SDS011;8563;52.242;9.098;2023-04-30T00:25:12;5.83;;;3.17;;
16892;SDS011;8563;52.242;9.098;2023-04-30T00:27:45;5.67;;;2.70;;
16892;SDS011;8563;52.242;9.098;2023-04-30T00:30:18;4.30;;;2.87;;
16892;SDS011;8563;52.242;9.098;2023-04-30T00:32:52;5.47;;;2.50;;
16892;SDS011;8563;52.242;9.098;2023-04-30T00:35:24;5.30;;;2.50;;
16892;SDS011;8563;52.242;9.098;2023-04-30T00:37:57;4.80;;;2.90;;
16892;SDS011;8563;52.242;9.098;2023-04-30T00:40:29;4.83;;;2.57;;
16892;SDS011;8563;52.242;9.098;2023-04-30T00:43:02;6.33;;;3.10;;
16892;SDS011;8563;52.242;9.098;2023-04-30T00:45:34;4.57;;;2.70;;
16892;SDS011;8563;52.242;9.098;2023-04-30T00:48:08;4.80;;;2.77;;
16892;SDS011;8563;52.242;9.098;2023-04-30T00:50:41;5.93;;;2.70;;
16892;SDS011;8563;52.242;9.098;2023-04-30T00:53:15;7.00;;;2.77;;
16892;SDS011;8563;52.242;9.098;2023-04-30T00:55:47;5.90;;;2.30;;
16892;SDS011;8563;52.242;9.098;2023-04-30T00:58:20;5.03;;;2.80;;
16892;SDS011;8563;52.242;9.098;2023-04-30T01:00:53;4.97;;;2.60;;
16892;SDS011;8563;52.242;9.098;2023-04-30T01:03:28;6.07;;;2.27;;
16892;SDS011;8563;52.242;9.098;2023-04-30T01:06:00;5.33;;;2.33;;
16892;SDS011;8563;52.242;9.098;2023-04-30T01:08:33;5.07;;;2.93;;
16892;SDS011;8563;52.242;9.098;2023-04-30T01:11:11;5.03;;;2.93;;
16892;SDS011;8563;52.242;9.098;2023-04-30T01:13:49;5.27;;;2.77;;
16892;SDS011;8563;52.242;9.098;2023-04-30T01:16:25;6.60;;;2.60;;
16892;SDS011;8563;52.242;9.098;2023-04-30T01:19:03;4.60;;;2.70;;
16892;SDS011;8563;52.242;9.098;2023-04-30T01:21:36;6.37;;;2.97;;
16892;SDS011;8563;52.242;9.098;2023-04-30T01:24:14;3.97;;;2.60;;
16892;SDS011;8563;52.242;9.098;2023-04-30T01:26:59;4.40;;;2.40;;
16892;SDS011;8563;52.242;9.098;2023-04-30T01:29:39;5.10;;;2.57;;
16892;SDS011;8563;52.242;9.098;2023-04-30T01:32:13;6.00;;;2.60;;
16892;SDS011;8563;52.242;9.098;2023-04-30T01:34:46;5.60;;;2.50;;
16892;SDS011;8563;52.242;9.098;2023-04-30T01:37:21;4.93;;;2.50;;
16892;SDS011;8563;52.242;9.098;2023-04-30T01:39:57;4.37;;;2.30;;
16892;SDS011;8563;52.242;9.098;2023-04-30T01:42:32;5.30;;;2.60;;
16892;SDS011;8563;52.242;9.098;2023-04-30T01:45:13;6.67;;;2.60;;
16892;SDS011;8563;52.242;9.098;2023-04-30T01:47:51;6.43;;;2.70;;
16892;SDS011;8563;52.242;9.098;2023-04-30T01:50:27;5.87;;;2.30;;
16892;SDS011;8563;52.242;9.098;2023-04-30T01:53:04;7.53;;;2.93;;
16892;SDS011;8563;52.242;9.098;2023-04-30T01:55:40;6.17;;;2.60;;
16892;SDS011;8563;52.242;9.098;2023-04-30T01:58:14;6.70;;;3.03;;
16892;SDS011;8563;52.242;9.098;2023-04-30T02:00:48;5.53;;;2.40;;
16892;SDS011;8563;52.242;9.098;2023-04-30T02:03:21;5.27;;;2.10;;
16892;SDS011;8563;52.242;9.098;2023-04-30T02:05:53;7.47;;;2.73;;
16892;SDS011;8563;52.242;9.098;2023-04-30T02:08:26;3.70;;;2.27;;
16892;SDS011;8563;52.242;9.098;2023-04-30T02:10:58;7.73;;;2.50;;
16892;SDS011;8563;52.242;9.098;2023-04-30T02:13:31;5.57;;;2.33;;
16892;SDS011;8563;52.242;9.098;2023-04-30T02:16:05;5.97;;;2.60;;
16892;SDS011;8563;52.242;9.098;2023-04-30T02:18:38;5.67;;;2.40;;
16892;SDS011;8563;52.242;9.098;2023-04-30T02:21:10;3.80;;;2.20;;
16892;SDS011;8563;52.242;9.098;2023-04-30T02:23:43;6.50;;;2.60;;
16892;SDS011;8563;52.242;9.098;2023-04-30T02:26:16;3.80;;;2.20;;
16892;SDS011;8563;52.242;9.098;2023-04-30T02:28:48;6.90;;;3.10;;
16892;SDS011;8563;52.242;9.098;2023-04-30T02:31:22;4.20;;;2.57;;
16892;SDS011;8563;52.242;9.098;2023-04-30T02:33:55;5.73;;;2.70;;
16892;SDS011;8563;52.242;9.098;2023-04-30T02:36:27;6.37;;;3.20;;
16892;SDS011;8563;52.242;9.098;2023-04-30T02:39:02;6.27;;;3.57;;
16892;SDS011;8563;52.242;9.098;2023-04-30T02:41:35;9.07;;;3.03;;
16892;SDS011;8563;52.242;9.098;2023-04-30T02:44:07;6.60;;;3.00;;
16892;SDS011;8563;52.242;9.098;2023-04-30T02:46:41;6.03;;;2.90;;
16892;SDS011;8563;52.242;9.098;2023-04-30T02:49:13;5.63;;;3.10;;
16892;SDS011;8563;52.242;9.098;2023-04-30T02:51:46;8.77;;;2.70;;
16892;SDS011;8563;52.242;9.098;2023-04-30T02:54:18;6.97;;;3.00;;
16892;SDS011;8563;52.242;9.098;2023-04-30T02:56:50;9.47;;;3.00;;
16892;SDS011;8563;52.242;9.098;2023-04-30T02:59:23;6.40;;;2.97;;
16892;SDS011;8563;52.242;9.098;2023-04-30T03:01:57;5.90;;;3.30;;
16892;SDS011;8563;52.242;9.098;2023-04-30T03:04:30;5.37;;;3.23;;
16892;SDS011;8563;52.242;9.098;2023-04-30T03:07:03;6.57;;;2.90;;
16892;SDS011;8563;52.242;9.098;2023-04-30T03:09:36;8.20;;;3.20;;
16892;SDS011;8563;52.242;9.098;2023-04-30T03:12:08;8.27;;;3.70;;
16892;SDS011;8563;52.242;9.098;2023-04-30T03:14:41;8.33;;;3.63;;
16892;SDS011;8563;52.242;9.098;2023-04-30T03:17:14;8.07;;;3.57;;
16892;SDS011;8563;52.242;9.098;2023-04-30T03:19:47;5.47;;;3.33;;
16892;SDS011;8563;52.242;9.098;2023-04-30T03:22:20;5.37;;;3.40;;
16892;SDS011;8563;52.242;9.098;2023-04-30T03:24:55;5.93;;;2.90;;
16892;SDS011;8563;52.242;9.098;2023-04-30T03:27:28;7.83;;;3.80;;
16892;SDS011;8563;52.242;9.098;2023-04-30T03:30:00;4.57;;;3.40;;
16892;SDS011;8563;52.242;9.098;2023-04-30T03:32:34;5.67;;;3.33;;
16892;SDS011;8563;52.242;9.098;2023-04-30T03:35:08;7.73;;;3.53;;
16892;SDS011;8563;52.242;9.098;2023-04-30T03:37:40;8.93;;;4.23;;
16892;SDS011;8563;52.242;9.098;2023-04-30T03:40:14;6.37;;;3.70;;
16892;SDS011;8563;52.242;9.098;2023-04-30T03:42:47;5.37;;;3.63;;
16892;SDS011;8563;52.242;9.098;2023-04-30T03:45:19;5.27;;;3.80;;
16892;SDS011;8563;52.242;9.098;2023-04-30T03:47:53;5.73;;;3.50;;
16892;SDS011;8563;52.242;9.098;2023-04-30T03:50:26;7.50;;;3.90;;
16892;SDS011;8563;52.242;9.098;2023-04-30T03:52:59;9.27;;;4.20;;
16892;SDS011;8563;52.242;9.098;2023-04-30T03:55:32;8.13;;;4.13;;
16892;SDS011;8563;52.242;9.098;2023-04-30T03:58:06;4.87;;;3.60;;
16892;SDS011;8563;52.242;9.098;2023-04-30T04:00:39;5.00;;;3.83;;
16892;SDS011;8563;52.242;9.098;2023-04-30T04:03:13;10.30;;;4.17;;
16892;SDS011;8563;52.242;9.098;2023-04-30T04:05:46;10.67;;;4.60;;
16892;SDS011;8563;52.242;9.098;2023-04-30T04:08:18;6.50;;;4.00;;
16892;SDS011;8563;52.242;9.098;2023-04-30T04:10:51;9.00;;;4.13;;
16892;SDS011;8563;52.242;9.098;2023-04-30T04:13:23;7.37;;;3.73;;
16892;SDS011;8563;52.242;9.098;2023-04-30T04:15:56;5.47;;;3.73;;
16892;SDS011;8563;52.242;9.098;2023-04-30T04:18:30;6.07;;;3.50;;
16892;SDS011;8563;52.242;9.098;2023-04-30T04:21:02;4.90;;;3.40;;
16892;SDS011;8563;52.242;9.098;2023-04-30T04:23:36;6.90;;;3.40;;
16892;SDS011;8563;52.242;9.098;2023-04-30T04:26:08;6.50;;;3.73;;
16892;SDS011;8563;52.242;9.098;2023-04-30T04:28:41;5.67;;;3.40;;
16892;SDS011;8563;52.242;9.098;2023-04-30T04:31:13;7.10;;;3.77;;
16892;SDS011;8563;52.242;9.098;2023-04-30T04:33:47;7.17;;;3.10;;
16892;SDS011;8563;52.242;9.098;2023-04-30T04:36:27;6.17;;;3.60;;
16892;SDS011;8563;52.242;9.098;2023-04-30T04:39:00;5.17;;;2.73;;
16892;SDS011;8563;52.242;9.098;2023-04-30T04:41:33;5.17;;;2.63;;
16892;SDS011;8563;52.242;9.098;2023-04-30T04:44:07;4.23;;;2.83;;
16892;SDS011;8563;52.242;9.098;2023-04-30T04:46:39;4.10;;;2.60;;
16892;SDS011;8563;52.242;9.098;2023-04-30T04:49:15;5.33;;;2.70;;
16892;SDS011;8563;52.242;9.098;2023-04-30T04:51:47;3.77;;;2.30;;
16892;SDS011;8563;52.242;9.098;2023-04-30T04:54:20;3.57;;;2.57;;
16892;SDS011;8563;52.242;9.098;2023-04-30T04:56:52;6.10;;;3.07;;
16892;SDS011;8563;52.242;9.098;2023-04-30T04:59:25;6.70;;;2.97;;
16892;SDS011;8563;52.242;9.098;2023-04-30T05:01:58;4.40;;;2.50;;
16892;SDS011;8563;52.242;9.098;2023-04-30T05:04:32;6.07;;;3.37;;
16892;SDS011;8563;52.242;9.098;2023-04-30T05:07:04;5.17;;;2.90;;
16892;SDS011;8563;52.242;9.098;2023-04-30T05:09:37;6.40;;;3.13;;
16892;SDS011;8563;52.242;9.098;2023-04-30T05:12:09;4.20;;;2.70;;
16892;SDS011;8563;52.242;9.098;2023-04-30T05:14:42;5.00;;;2.40;;
16892;SDS011;8563;52.242;9.098;2023-04-30T05:17:15;4.53;;;2.47;;
16892;SDS011;8563;52.242;9.098;2023-04-30T05:19:48;3.47;;;2.37;;
16892;SDS011;8563;52.242;9.098;2023-04-30T05:22:21;5.10;;;3.00;;
16892;SDS011;8563;52.242;9.098;2023-04-30T05:24:53;7.90;;;2.87;;
16892;SDS011;8563;52.242;9.098;2023-04-30T05:27:26;5.63;;;2.77;;
16892;SDS011;8563;52.242;9.098;2023-04-30T05:29:58;6.53;;;2.87;;
16892;SDS011;8563;52.242;9.098;2023-04-30T05:32:31;5.87;;;3.00;;
16892;SDS011;8563;52.242;9.098;2023-04-30T05:35:06;6.90;;;2.53;;
16892;SDS011;8563;52.242;9.098;2023-04-30T05:37:38;4.43;;;2.60;;
16892;SDS011;8563;52.242;9.098;2023-04-30T05:40:12;6.17;;;3.37;;
16892;SDS011;8563;52.242;9.098;2023-04-30T05:42:44;8.23;;;3.07;;
16892;SDS011;8563;52.242;9.098;2023-04-30T05:45:17;5.43;;;2.50;;
16892;SDS011;8563;52.242;9.098;2023-04-30T05:47:49;4.43;;;2.73;;
16892;SDS011;8563;52.242;9.098;2023-04-30T05:50:23;6.40;;;2.70;;
16892;SDS011;8563;52.242;9.098;2023-04-30T05:52:56;5.43;;;2.67;;
16892;SDS011;8563;52.242;9.098;2023-04-30T05:55:28;4.87;;;2.90;;
16892;SDS011;8563;52.242;9.098;2023-04-30T05:58:01;7.43;;;2.93;;
16892;SDS011;8563;52.242;9.098;2023-04-30T06:00:34;4.87;;;2.53;;
16892;SDS011;8563;52.242;9.098;2023-04-30T06:03:07;5.60;;;2.90;;
16892;SDS011;8563;52.242;9.098;2023-04-30T06:05:40;5.10;;;2.63;;
16892;SDS011;8563;52.242;9.098;2023-04-30T06:08:13;7.73;;;2.93;;
16892;SDS011;8563;52.242;9.098;2023-04-30T06:10:46;6.93;;;2.33;;
16892;SDS011;8563;52.242;9.098;2023-04-30T06:13:18;7.20;;;2.73;;
16892;SDS011;8563;52.242;9.098;2023-04-30T06:15:50;9.20;;;2.40;;
16892;SDS011;8563;52.242;9.098;2023-04-30T06:18:23;7.00;;;2.47;;
16892;SDS011;8563;52.242;9.098;2023-04-30T06:20:57;10.07;;;2.67;;
16892;SDS011;8563;52.242;9.098;2023-04-30T06:23:30;6.20;;;2.47;;
16892;SDS011;8563;52.242;9.098;2023-04-30T06:26:02;7.90;;;2.27;;
16892;SDS011;8563;52.242;9.098;2023-04-30T06:28:35;6.27;;;2.43;;
16892;SDS011;8563;52.242;9.098;2023-04-30T06:31:07;7.27;;;2.50;;
16892;SDS011;8563;52.242;9.098;2023-04-30T06:33:40;7.57;;;2.47;;
16892;SDS011;8563;52.242;9.098;2023-04-30T06:36:14;6.53;;;2.30;;
16892;SDS011;8563;52.242;9.098;2023-04-30T06:38:46;9.07;;;2.73;;
16892;SDS011;8563;52.242;9.098;2023-04-30T06:41:19;9.73;;;2.53;;
16892;SDS011;8563;52.242;9.098;2023-04-30T06:43:51;7.27;;;2.70;;
16892;SDS011;8563;52.242;9.098;2023-04-30T06:46:24;6.00;;;2.27;;
16892;SDS011;8563;52.242;9.098;2023-04-30T06:48:56;8.00;;;2.87;;
16892;SDS011;8563;52.242;9.098;2023-04-30T06:51:30;5.63;;;2.33;;
16892;SDS011;8563;52.242;9.098;2023-04-30T06:54:03;11.63;;;3.20;;
16892;SDS011;8563;52.242;9.098;2023-04-30T06:56:35;13.33;;;3.33;;
16892;SDS011;8563;52.242;9.098;2023-04-30T06:59:08;9.47;;;3.03;;
16892;SDS011;8563;52.242;9.098;2023-04-30T07:01:40;8.23;;;2.27;;
16892;SDS011;8563;52.242;9.098;2023-04-30T07:04:12;5.73;;;2.53;;
16892;SDS011;8563;52.242;9.098;2023-04-30T07:06:46;7.33;;;2.43;;
16892;SDS011;8563;52.242;9.098;2023-04-30T07:09:18;8.73;;;2.43;;
16892;SDS011;8563;52.242;9.098;2023-04-30T07:11:51;9.40;;;2.97;;
16892;SDS011;8563;52.242;9.098;2023-04-30T07:14:23;6.43;;;2.33;;
16892;SDS011;8563;52.242;9.098;2023-04-30T07:16:56;10.17;;;2.70;;
16892;SDS011;8563;52.242;9.098;2023-04-30T07:19:29;8.30;;;2.53;;
16892;SDS011;8563;52.242;9.098;2023-04-30T07:22:03;7.13;;;2.17;;
16892;SDS011;8563;52.242;9.098;2023-04-30T07:24:35;8.23;;;2.50;;
16892;SDS011;8563;52.242;9.098;2023-04-30T07:27:07;8.80;;;2.70;;
16892;SDS011;8563;52.242;9.098;2023-04-30T07:29:40;7.63;;;3.00;;
16892;SDS011;8563;52.242;9.098;2023-04-30T07:32:12;8.33;;;2.50;;
16892;SDS011;8563;52.242;9.098;2023-04-30T07:34:45;6.33;;;2.40;;
16892;SDS011;8563;52.242;9.098;2023-04-30T07:37:20;7.40;;;2.80;;
16892;SDS011;8563;52.242;9.098;2023-04-30T07:39:52;10.13;;;2.83;;
16892;SDS011;8563;52.242;9.098;2023-04-30T07:42:25;11.83;;;2.60;;
16892;SDS011;8563;52.242;9.098;2023-04-30T07:44:58;5.00;;;2.27;;
16892;SDS011;8563;52.242;9.098;2023-04-30T07:47:33;12.67;;;2.90;;
16892;SDS011;8563;52.242;9.098;2023-04-30T07:50:06;12.13;;;2.83;;
16892;SDS011;8563;52.242;9.098;2023-04-30T07:52:40;9.77;;;2.97;;
16892;SDS011;8563;52.242;9.098;2023-04-30T07:55:13;8.20;;;2.80;;
16892;SDS011;8563;52.242;9.098;2023-04-30T07:57:45;6.30;;;2.30;;
16892;SDS011;8563;52.242;9.098;2023-04-30T08:00:18;6.13;;;2.60;;
16892;SDS011;8563;52.242;9.098;2023-04-30T08:02:50;8.97;;;2.43;;
16892;SDS011;8563;52.242;9.098;2023-04-30T08:05:22;8.00;;;2.43;;
16892;SDS011;8563;52.242;9.098;2023-04-30T08:07:56;7.37;;;2.67;;
16892;SDS011;8563;52.242;9.098;2023-04-30T08:10:30;7.60;;;2.97;;
16892;SDS011;8563;52.242;9.098;2023-04-30T08:13:02;7.30;;;2.83;;
16892;SDS011;8563;52.242;9.098;2023-04-30T08:15:35;9.07;;;2.97;;
16892;SDS011;8563;52.242;9.098;2023-04-30T08:18:09;8.13;;;2.60;;
16892;SDS011;8563;52.242;9.098;2023-04-30T08:20:42;6.37;;;2.30;;
16892;SDS011;8563;52.242;9.098;2023-04-30T08:23:16;7.37;;;2.70;;
16892;SDS011;8563;52.242;9.098;2023-04-30T08:25:48;5.90;;;2.13;;
16892;SDS011;8563;52.242;9.098;2023-04-30T08:28:21;7.47;;;2.83;;
16892;SDS011;8563;52.242;9.098;2023-04-30T08:30:54;8.93;;;3.10;;
16892;SDS011;8563;52.242;9.098;2023-04-30T08:33:26;5.97;;;2.37;;
16892;SDS011;8563;52.242;9.098;2023-04-30T08:35:58;15.07;;;3.10;;
16892;SDS011;8563;52.242;9.098;2023-04-30T08:38:33;9.50;;;2.70;;
16892;SDS011;8563;52.242;9.098;2023-04-30T08:41:08;9.20;;;3.13;;
16892;SDS011;8563;52.242;9.098;2023-04-30T08:43:41;8.90;;;3.00;;
16892;SDS011;8563;52.242;9.098;2023-04-30T08:46:14;7.20;;;2.63;;
16892;SDS011;8563;52.242;9.098;2023-04-30T08:48:47;8.90;;;2.80;;
16892;SDS011;8563;52.242;9.098;2023-04-30T08:51:19;8.83;;;2.70;;
16892;SDS011;8563;52.242;9.098;2023-04-30T08:53:54;7.83;;;2.80;;
16892;SDS011;8563;52.242;9.098;2023-04-30T08:56:27;5.50;;;2.27;;
16892;SDS011;8563;52.242;9.098;2023-04-30T08:59:02;6.70;;;2.47;;
16892;SDS011;8563;52.242;9.098;2023-04-30T09:01:35;7.13;;;2.70;;
16892;SDS011;8563;52.242;9.098;2023-04-30T09:04:07;12.27;;;2.80;;
16892;SDS011;8563;52.242;9.098;2023-04-30T09:06:40;4.23;;;2.30;;
16892;SDS011;8563;52.242;9.098;2023-04-30T09:09:15;11.97;;;2.93;;
16892;SDS011;8563;52.242;9.098;2023-04-30T09:11:47;6.73;;;2.60;;
16892;SDS011;8563;52.242;9.098;2023-04-30T09:14:22;5.00;;;2.17;;
16892;SDS011;8563;52.242;9.098;2023-04-30T09:16:56;7.90;;;2.70;;
16892;SDS011;8563;52.242;9.098;2023-04-30T09:19:29;7.17;;;2.53;;
16892;SDS011;8563;52.242;9.098;2023-04-30T09:22:20;7.80;;;2.40;;
16892;SDS011;8563;52.242;9.098;2023-04-30T09:24:55;8.37;;;2.90;;
16892;SDS011;8563;52.242;9.098;2023-04-30T09:27:27;7.37;;;2.67;;
16892;SDS011;8563;52.242;9.098;2023-04-30T09:30:00;7.07;;;2.60;;
16892;SDS011;8563;52.242;9.098;2023-04-30T09:32:35;8.87;;;3.00;;
16892;SDS011;8563;52.242;9.098;2023-04-30T09:35:07;8.10;;;2.50;;
16892;SDS011;8563;52.242;9.098;2023-04-30T09:38:00;8.33;;;2.87;;
16892;SDS011;8563;52.242;9.098;2023-04-30T09:40:35;10.50;;;2.90;;
16892;SDS011;8563;52.242;9.098;2023-04-30T09:43:09;7.27;;;2.27;;
16892;SDS011;8563;52.242;9.098;2023-04-30T09:45:42;7.47;;;2.77;;
16892;SDS011;8563;52.242;9.098;2023-04-30T09:48:16;7.63;;;2.30;;
16892;SDS011;8563;52.242;9.098;2023-04-30T09:50:49;6.60;;;2.47;;
16892;SDS011;8563;52.242;9.098;2023-04-30T09:53:22;6.83;;;2.50;;
16892;SDS011;8563;52.242;9.098;2023-04-30T09:55:58;6.73;;;2.73;;
16892;SDS011;8563;52.242;9.098;2023-04-30T09:58:35;4.87;;;2.10;;
16892;SDS011;8563;52.242;9.098;2023-04-30T10:01:08;7.17;;;2.53;;
16892;SDS011;8563;52.242;9.098;2023-04-30T10:03:41;8.83;;;2.43;;
16892;SDS011;8563;52.242;9.098;2023-04-30T10:06:14;6.30;;;2.40;;
16892;SDS011;8563;52.242;9.098;2023-04-30T10:08:50;6.37;;;2.37;;
16892;SDS011;8563;52.242;9.098;2023-04-30T10:11:27;5.97;;;2.97;;
16892;SDS011;8563;52.242;9.098;2023-04-30T10:14:02;6.00;;;2.20;;
16892;SDS011;8563;52.242;9.098;2023-04-30T10:16:36;6.67;;;2.70;;
16892;SDS011;8563;52.242;9.098;2023-04-30T10:19:12;5.03;;;2.27;;
16892;SDS011;8563;52.242;9.098;2023-04-30T10:21:45;8.40;;;2.83;;
16892;SDS011;8563;52.242;9.098;2023-04-30T10:24:18;7.47;;;2.60;;
16892;SDS011;8563;52.242;9.098;2023-04-30T10:26:53;6.10;;;2.20;;
16892;SDS011;8563;52.242;9.098;2023-04-30T10:29:26;7.33;;;2.33;;
16892;SDS011;8563;52.242;9.098;2023-04-30T10:31:58;5.07;;;2.30;;
16892;SDS011;8563;52.242;9.098;2023-04-30T10:34:37;6.80;;;2.30;;
16892;SDS011;8563;52.242;9.098;2023-04-30T10:37:12;6.27;;;2.50;;
16892;SDS011;8563;52.242;9.098;2023-04-30T10:39:47;4.97;;;2.60;;
16892;SDS011;8563;52.242;9.098;2023-04-30T10:42:22;5.33;;;2.00;;
16892;SDS011;8563;52.242;9.098;2023-04-30T10:44:54;6.10;;;2.33;;
16892;SDS011;8563;52.242;9.098;2023-04-30T10:47:27;5.27;;;2.00;;
16892;SDS011;8563;52.242;9.098;2023-04-30T10:50:03;4.23;;;1.70;;
16892;SDS011;8563;52.242;9.098;2023-04-30T10:52:36;5.13;;;1.80;;
16892;SDS011;8563;52.242;9.098;2023-04-30T10:55:09;4.23;;;1.63;;
16892;SDS011;8563;52.242;9.098;2023-04-30T10:57:42;4.20;;;1.83;;
16892;SDS011;8563;52.242;9.098;2023-04-30T11:00:18;2.63;;;1.40;;
16892;SDS011;8563;52.242;9.098;2023-04-30T11:02:52;4.40;;;1.80;;
16892;SDS011;8563;52.242;9.098;2023-04-30T11:05:35;5.57;;;1.77;;
16892;SDS011;8563;52.242;9.098;2023-04-30T11:08:09;3.03;;;1.40;;
16892;SDS011;8563;52.242;9.098;2023-04-30T11:10:55;3.83;;;1.43;;
16892;SDS011;8563;52.242;9.098;2023-04-30T11:13:39;5.83;;;1.80;;
16892;SDS011;8563;52.242;9.098;2023-04-30T11:16:12;4.93;;;2.00;;
16892;SDS011;8563;52.242;9.098;2023-04-30T11:18:46;4.17;;;2.07;;
16892;SDS011;8563;52.242;9.098;2023-04-30T11:21:19;4.57;;;1.73;;
16892;SDS011;8563;52.242;9.098;2023-04-30T11:23:51;3.63;;;1.80;;
16892;SDS011;8563;52.242;9.098;2023-04-30T11:29:22;3.80;;;1.90;;
16892;SDS011;8563;52.242;9.098;2023-04-30T11:31:55;4.97;;;1.87;;
16892;SDS011;8563;52.242;9.098;2023-04-30T11:34:27;4.90;;;1.83;;
16892;SDS011;8563;52.242;9.098;2023-04-30T11:37:00;7.93;;;2.20;;
16892;SDS011;8563;52.242;9.098;2023-04-30T11:39:32;8.43;;;2.53;;
16892;SDS011;8563;52.242;9.098;2023-04-30T11:42:06;4.60;;;2.10;;
16892;SDS011;8563;52.242;9.098;2023-04-30T11:44:40;4.00;;;1.77;;
16892;SDS011;8563;52.242;9.098;2023-04-30T11:47:13;5.20;;;1.90;;
16892;SDS011;8563;52.242;9.098;2023-04-30T11:49:46;3.37;;;1.80;;
16892;SDS011;8563;52.242;9.098;2023-04-30T11:52:24;4.83;;;1.93;;
16892;SDS011;8563;52.242;9.098;2023-04-30T11:54:56;5.77;;;2.30;;
16892;SDS011;8563;52.242;9.098;2023-04-30T11:57:33;4.13;;;1.73;;
16892;SDS011;8563;52.242;9.098;2023-04-30T12:00:08;4.73;;;1.90;;
16892;SDS011;8563;52.242;9.098;2023-04-30T12:02:41;7.63;;;2.20;;
16892;SDS011;8563;52.242;9.098;2023-04-30T12:05:15;3.80;;;1.90;;
16892;SDS011;8563;52.242;9.098;2023-04-30T12:07:48;6.30;;;2.30;;
16892;SDS011;8563;52.242;9.098;2023-04-30T12:10:21;4.20;;;1.90;;
16892;SDS011;8563;52.242;9.098;2023-04-30T12:12:54;10.70;;;2.20;;
16892;SDS011;8563;52.242;9.098;2023-04-30T12:15:27;5.00;;;2.23;;
16892;SDS011;8563;52.242;9.098;2023-04-30T12:18:10;8.07;;;2.40;;
16892;SDS011;8563;52.242;9.098;2023-04-30T12:20:43;5.03;;;2.13;;
16892;SDS011;8563;52.242;9.098;2023-04-30T12:23:15;5.40;;;2.10;;
16892;SDS011;8563;52.242;9.098;2023-04-30T12:25:47;5.13;;;2.17;;
16892;SDS011;8563;52.242;9.098;2023-04-30T12:28:22;3.57;;;2.30;;
16892;SDS011;8563;52.242;9.098;2023-04-30T12:30:56;4.47;;;2.10;;
16892;SDS011;8563;52.242;9.098;2023-04-30T12:33:29;5.23;;;1.90;;
16892;SDS011;8563;52.242;9.098;2023-04-30T12:36:02;5.53;;;2.07;;
16892;SDS011;8563;52.242;9.098;2023-04-30T12:38:34;5.77;;;2.37;;
16892;SDS011;8563;52.242;9.098;2023-04-30T12:41:09;3.47;;;2.10;;
16892;SDS011;8563;52.242;9.098;2023-04-30T12:43:44;5.83;;;1.73;;
16892;SDS011;8563;52.242;9.098;2023-04-30T12:46:25;6.77;;;2.10;;
16892;SDS011;8563;52.242;9.098;2023-04-30T12:48:58;3.83;;;2.10;;
16892;SDS011;8563;52.242;9.098;2023-04-30T12:51:32;7.37;;;2.57;;
16892;SDS011;8563;52.242;9.098;2023-04-30T12:54:04;4.47;;;2.13;;
16892;SDS011;8563;52.242;9.098;2023-04-30T12:56:37;4.97;;;2.20;;
16892;SDS011;8563;52.242;9.098;2023-04-30T12:59:13;5.17;;;2.30;;
16892;SDS011;8563;52.242;9.098;2023-04-30T13:01:48;5.23;;;2.20;;
16892;SDS011;8563;52.242;9.098;2023-04-30T13:04:21;4.23;;;2.00;;
16892;SDS011;8563;52.242;9.098;2023-04-30T13:06:53;7.73;;;2.40;;
16892;SDS011;8563;52.242;9.098;2023-04-30T13:09:26;3.97;;;2.00;;
16892;SDS011;8563;52.242;9.098;2023-04-30T13:11:59;6.40;;;2.20;;
16892;SDS011;8563;52.242;9.098;2023-04-30T13:14:31;7.27;;;2.20;;
16892;SDS011;8563;52.242;9.098;2023-04-30T13:17:05;5.43;;;1.80;;
16892;SDS011;8563;52.242;9.098;2023-04-30T13:19:40;4.00;;;1.80;;
16892;SDS011;8563;52.242;9.098;2023-04-30T13:22:12;7.50;;;2.00;;
16892;SDS011;8563;52.242;9.098;2023-04-30T13:24:45;5.50;;;2.00;;
16892;SDS011;8563;52.242;9.098;2023-04-30T13:27:17;5.03;;;2.10;;
16892;SDS011;8563;52.242;9.098;2023-04-30T13:29:50;2.77;;;1.77;;
16892;SDS011;8563;52.242;9.098;2023-04-30T13:32:24;5.47;;;2.10;;
16892;SDS011;8563;52.242;9.098;2023-04-30T13:34:57;4.63;;;2.10;;
16892;SDS011;8563;52.242;9.098;2023-04-30T13:37:29;3.80;;;1.63;;
16892;SDS011;8563;52.242;9.098;2023-04-30T13:40:02;4.77;;;2.20;;
16892;SDS011;8563;52.242;9.098;2023-04-30T13:42:35;3.20;;;1.47;;
16892;SDS011;8563;52.242;9.098;2023-04-30T13:45:08;6.23;;;1.53;;
16892;SDS011;8563;52.242;9.098;2023-04-30T13:47:43;3.17;;;1.50;;
16892;SDS011;8563;52.242;9.098;2023-04-30T13:50:15;3.70;;;1.40;;
16892;SDS011;8563;52.242;9.098;2023-04-30T13:52:48;3.40;;;1.63;;
16892;SDS011;8563;52.242;9.098;2023-04-30T13:55:20;4.37;;;1.50;;
16892;SDS011;8563;52.242;9.098;2023-04-30T13:57:53;5.73;;;1.60;;
16892;SDS011;8563;52.242;9.098;2023-04-30T14:00:26;3.60;;;1.70;;
16892;SDS011;8563;52.242;9.098;2023-04-30T14:03:00;3.37;;;1.43;;
16892;SDS011;8563;52.242;9.098;2023-04-30T14:05:32;3.80;;;1.43;;
16892;SDS011;8563;52.242;9.098;2023-04-30T14:08:05;4.00;;;1.63;;
16892;SDS011;8563;52.242;9.098;2023-04-30T14:10:37;3.23;;;1.60;;
16892;SDS011;8563;52.242;9.098;2023-04-30T14:13:10;5.03;;;1.60;;
16892;SDS011;8563;52.242;9.098;2023-04-30T14:15:42;4.90;;;1.80;;
16892;SDS011;8563;52.242;9.098;2023-04-30T14:18:18;5.97;;;1.80;;
16892;SDS011;8563;52.242;9.098;2023-04-30T14:20:51;4.70;;;1.60;;
16892;SDS011;8563;52.242;9.098;2023-04-30T14:23:24;3.23;;;1.53;;
16892;SDS011;8563;52.242;9.098;2023-04-30T14:25:58;2.53;;;1.30;;
16892;SDS011;8563;52.242;9.098;2023-04-30T14:28:30;3.50;;;1.80;;
16892;SDS011;8563;52.242;9.098;2023-04-30T14:31:04;3.33;;;1.70;;
16892;SDS011;8563;52.242;9.098;2023-04-30T14:33:38;5.50;;;1.80;;
16892;SDS011;8563;52.242;9.098;2023-04-30T14:36:11;6.40;;;1.93;;
16892;SDS011;8563;52.242;9.098;2023-04-30T14:38:43;3.47;;;1.60;;
16892;SDS011;8563;52.242;9.098;2023-04-30T14:41:16;5.13;;;1.70;;
16892;SDS011;8563;52.242;9.098;2023-04-30T14:43:48;3.37;;;1.60;;
16892;SDS011;8563;52.242;9.098;2023-04-30T14:46:21;7.70;;;2.23;;
16892;SDS011;8563;52.242;9.098;2023-04-30T14:48:56;2.83;;;1.53;;
16892;SDS011;8563;52.242;9.098;2023-04-30T14:51:29;4.07;;;1.57;;
16892;SDS011;8563;52.242;9.098;2023-04-30T14:54:01;3.83;;;1.57;;
16892;SDS011;8563;52.242;9.098;2023-04-30T14:56:34;4.50;;;1.70;;
16892;SDS011;8563;52.242;9.098;2023-04-30T14:59:06;4.80;;;1.80;;
16892;SDS011;8563;52.242;9.098;2023-04-30T15:01:39;4.33;;;1.60;;
16892;SDS011;8563;52.242;9.098;2023-04-30T15:04:13;6.03;;;1.60;;
16892;SDS011;8563;52.242;9.098;2023-04-30T15:06:45;3.23;;;1.70;;
16892;SDS011;8563;52.242;9.098;2023-04-30T15:09:18;3.97;;;1.40;;
16892;SDS011;8563;52.242;9.098;2023-04-30T15:11:50;3.10;;;1.47;;
16892;SDS011;8563;52.242;9.098;2023-04-30T15:14:23;4.57;;;1.67;;
16892;SDS011;8563;52.242;9.098;2023-04-30T15:16:56;4.70;;;1.70;;
16892;SDS011;8563;52.242;9.098;2023-04-30T15:19:29;5.60;;;1.47;;
16892;SDS011;8563;52.242;9.098;2023-04-30T15:22:02;4.40;;;1.70;;
16892;SDS011;8563;52.242;9.098;2023-04-30T15:24:34;3.43;;;1.63;;
16892;SDS011;8563;52.242;9.098;2023-04-30T15:27:07;3.10;;;1.33;;
16892;SDS011;8563;52.242;9.098;2023-04-30T15:29:40;5.83;;;1.67;;
16892;SDS011;8563;52.242;9.098;2023-04-30T15:32:13;4.53;;;1.53;;
16892;SDS011;8563;52.242;9.098;2023-04-30T15:34:47;3.10;;;1.60;;
16892;SDS011;8563;52.242;9.098;2023-04-30T15:37:20;4.57;;;1.80;;
16892;SDS011;8563;52.242;9.098;2023-04-30T15:39:52;5.50;;;1.80;;
16892;SDS011;8563;52.242;9.098;2023-04-30T15:42:24;4.97;;;2.00;;